sensor_id;sensor_type;location;lat;lon;timestamp;noise_LAeq;noise_LA_min;noise_LA_max;noise_LA01;noise_LA95
67318;Laerm;57664;51.436;5.980;2023-10-08T00:00:00;31.28;30.18;32.40;;
67318;Laerm;57664;51.436;5.980;2023-10-08T00:00:35;31.26;29.98;32.35;;
67318;Laerm;57664;51.436;5.980;2023-10-08T00:01:03;31.26;30.06;32.36;;
67318;Laerm;57664;51.436;5.980;2023-10-08T00:01:13;31.28;30.34;32.48;;
67318;Laerm;57664;51.436;5.980;2023-10-08T00:01:24;31.27;30.15;32.64;;
67318;Laerm;57664;51.436;5.980;2023-10-08T00:01:41;31.28;30.14;32.22;;
67318;Laerm;57664;51.436;5.980;2023-10-08T00:01:53;31.24;30.04;32.13;;
67318;Laerm;57664;51.436;5.980;2023-10-08T00:02:05;31.23;30.32;32.16;;
67318;Laerm;57664;51.436;5.980;2023-10-08T00:02:16;31.26;30.28;32.21;;
67318;Laerm;57664;51.436;5.980;2023-10-08T00:02:32;31.24;30.01;32.18;;
67318;Laerm;57664;51.436;5.980;2023-10-08T00:02:42;31.25;30.21;32.22;;
67318;Laerm;57664;51.436;5.980;2023-10-08T00:02:59;31.25;30.11;32.24;;
67318;Laerm;57664;51.436;5.980;2023-10-08T00:03:13;31.28;30.18;32.32;;
67318;Laerm;57664;51.436;5.980;2023-10-08T00:03:27;31.23;29.72;32.37;;
67318;Laerm;57664;51.436;5.980;2023-10-08T00:03:39;31.24;30.00;32.24;;
67318;Laerm;57664;51.436;5.980;2023-10-08T00:03:51;31.28;30.37;32.19;;
67318;Laerm;57664;51.436;5.980;2023-10-08T00:04:03;31.21;29.97;32.32;;
67318;Laerm;57664;51.436;5.980;2023-10-08T00:04:14;31.23;30.02;32.31;;
67318;Laerm;57664;51.436;5.980;2023-10-08T00:04:28;31.27;30.36;32.37;;
67318;Laerm;57664;51.436;5.980;2023-10-08T00:04:41;31.26;29.99;32.31;;
67318;Laerm;57664;51.436;5.980;2023-10-08T00:04:54;31.25;30.35;32.28;;
67318;Laerm;57664;51.436;5.980;2023-10-08T00:05:04;31.26;30.10;32.17;;
67318;Laerm;57664;51.436;5.980;2023-10-08T00:05:27;31.23;30.29;32.20;;
67318;Laerm;57664;51.436;5.980;2023-10-08T00:05:38;31.28;30.17;32.51;;
67318;Laerm;57664;51.436;5.980;2023-10-08T00:05:49;31.26;30.22;32.19;;
67318;Laerm;57664;51.436;5.980;2023-10-08T00:06:12;31.28;30.02;32.27;;
67318;Laerm;57664;51.436;5.980;2023-10-08T00:06:27;31.26;30.09;32.29;;
67318;Laerm;57664;51.436;5.980;2023-10-08T00:06:38;31.28;30.47;32.40;;
67318;Laerm;57664;51.436;5.980;2023-10-08T00:06:49;31.30;30.21;32.33;;
67318;Laerm;57664;51.436;5.980;2023-10-08T00:07:03;31.28;29.96;34.49;;
67318;Laerm;57664;51.436;5.980;2023-10-08T00:07:17;31.28;29.89;32.17;;
67318;Laerm;57664;51.436;5.980;2023-10-08T00:07:31;31.26;30.11;32.28;;
67318;Laerm;57664;51.436;5.980;2023-10-08T00:07:41;31.25;30.22;32.13;;
67318;Laerm;57664;51.436;5.980;2023-10-08T00:07:52;31.25;30.23;32.54;;
67318;Laerm;57664;51.436;5.980;2023-10-08T00:08:09;31.27;30.17;32.90;;
67318;Laerm;57664;51.436;5.980;2023-10-08T00:08:19;31.24;30.24;32.36;;
67318;Laerm;57664;51.436;5.980;2023-10-08T00:08:30;31.26;30.05;32.26;;
67318;Laerm;57664;51.436;5.980;2023-10-08T00:08:40;31.28;30.15;32.42;;
67318;Laerm;57664;51.436;5.980;2023-10-08T00:08:50;31.25;30.29;32.26;;
67318;Laerm;57664;51.436;5.980;2023-10-08T00:09:04;31.26;30.07;32.47;;
67318;Laerm;57664;51.436;5.980;2023-10-08T00:09:18;31.23;30.29;32.29;;
67318;Laerm;57664;51.436;5.980;2023-10-08T00:09:30;31.24;29.82;32.37;;
67318;Laerm;57664;51.436;5.980;2023-10-08T00:09:45;31.27;30.20;32.24;;
67318;Laerm;57664;51.436;5.980;2023-10-08T00:09:55;31.23;30.36;32.19;;
67318;Laerm;57664;51.436;5.980;2023-10-08T00:10:06;31.26;30.21;32.86;;
67318;Laerm;57664;51.436;5.980;2023-10-08T00:10:18;31.21;30.20;32.06;;
67318;Laerm;57664;51.436;5.980;2023-10-08T00:10:28;31.27;30.31;32.31;;
67318;Laerm;57664;51.436;5.980;2023-10-08T00:10:39;31.24;30.12;32.09;;
67318;Laerm;57664;51.436;5.980;2023-10-08T00:10:59;31.26;30.00;32.38;;
67318;Laerm;57664;51.436;5.980;2023-10-08T00:11:19;31.25;30.20;32.63;;
67318;Laerm;57664;51.436;5.980;2023-10-08T00:11:29;31.24;29.90;32.45;;
67318;Laerm;57664;51.436;5.980;2023-10-08T00:11:40;31.21;29.94;32.27;;
67318;Laerm;57664;51.436;5.980;2023-10-08T00:11:50;31.24;30.05;32.06;;
67318;Laerm;57664;51.436;5.980;2023-10-08T00:12:04;31.26;30.13;32.31;;
67318;Laerm;57664;51.436;5.980;2023-10-08T00:12:14;31.23;30.11;32.16;;
67318;Laerm;57664;51.436;5.980;2023-10-08T00:12:26;31.26;30.13;32.23;;
67318;Laerm;57664;51.436;5.980;2023-10-08T00:12:41;31.24;30.02;32.48;;
67318;Laerm;57664;51.436;5.980;2023-10-08T00:12:52;31.25;29.86;32.21;;
67318;Laerm;57664;51.436;5.980;2023-10-08T00:13:03;31.26;30.04;32.38;;
67318;Laerm;57664;51.436;5.980;2023-10-08T00:13:14;31.24;29.90;32.12;;
67318;Laerm;57664;51.436;5.980;2023-10-08T00:13:27;31.25;30.21;32.26;;
67318;Laerm;57664;51.436;5.980;2023-10-08T00:13:39;31.26;30.25;32.17;;
67318;Laerm;57664;51.436;5.980;2023-10-08T00:13:50;31.21;30.14;32.01;;
67318;Laerm;57664;51.436;5.980;2023-10-08T00:14:00;31.30;30.37;32.57;;
67318;Laerm;57664;51.436;5.980;2023-10-08T00:14:11;31.26;30.13;32.53;;
67318;Laerm;57664;51.436;5.980;2023-10-08T00:14:27;31.24;29.91;32.33;;
67318;Laerm;57664;51.436;5.980;2023-10-08T00:14:38;31.24;30.11;32.16;;
67318;Laerm;57664;51.436;5.980;2023-10-08T00:14:57;31.22;30.09;32.58;;
67318;Laerm;57664;51.436;5.980;2023-10-08T00:15:09;31.26;30.05;32.35;;
67318;Laerm;57664;51.436;5.980;2023-10-08T00:15:20;31.28;30.10;32.38;;
67318;Laerm;57664;51.436;5.980;2023-10-08T00:15:30;31.26;30.34;32.18;;
67318;Laerm;57664;51.436;5.980;2023-10-08T00:15:42;31.23;30.21;32.17;;
67318;Laerm;57664;51.436;5.980;2023-10-08T00:16:06;31.25;30.03;32.44;;
67318;Laerm;57664;51.436;5.980;2023-10-08T00:16:19;31.23;30.00;32.22;;
67318;Laerm;57664;51.436;5.980;2023-10-08T00:16:35;31.24;30.32;32.20;;
67318;Laerm;57664;51.436;5.980;2023-10-08T00:16:48;31.25;29.95;32.45;;
67318;Laerm;57664;51.436;5.980;2023-10-08T00:17:02;31.24;30.15;32.31;;
67318;Laerm;57664;51.436;5.980;2023-10-08T00:17:12;31.25;30.17;32.24;;
67318;Laerm;57664;51.436;5.980;2023-10-08T00:17:28;31.27;30.28;32.12;;
67318;Laerm;57664;51.436;5.980;2023-10-08T00:17:39;31.26;29.83;32.15;;
67318;Laerm;57664;51.436;5.980;2023-10-08T00:17:49;31.26;30.28;32.22;;
67318;Laerm;57664;51.436;5.980;2023-10-08T00:17:59;31.26;30.33;32.39;;
67318;Laerm;57664;51.436;5.980;2023-10-08T00:18:11;31.25;30.13;32.33;;
67318;Laerm;57664;51.436;5.980;2023-10-08T00:18:22;31.29;30.16;32.39;;
67318;Laerm;57664;51.436;5.980;2023-10-08T00:18:33;31.27;30.31;32.27;;
67318;Laerm;57664;51.436;5.980;2023-10-08T00:18:45;31.26;30.21;32.34;;
67318;Laerm;57664;51.436;5.980;2023-10-08T00:19:01;31.26;30.29;32.43;;
67318;Laerm;57664;51.436;5.980;2023-10-08T00:19:19;31.28;29.92;32.18;;
67318;Laerm;57664;51.436;5.980;2023-10-08T00:19:29;31.29;30.29;32.75;;
67318;Laerm;57664;51.436;5.980;2023-10-08T00:19:46;31.27;30.15;32.16;;
67318;Laerm;57664;51.436;5.980;2023-10-08T00:20:02;31.26;30.00;33.76;;
67318;Laerm;57664;51.436;5.980;2023-10-08T00:20:14;31.29;30.07;32.32;;
67318;Laerm;57664;51.436;5.980;2023-10-08T00:20:37;31.27;30.04;32.30;;
67318;Laerm;57664;51.436;5.980;2023-10-08T00:20:57;31.25;30.21;32.86;;
67318;Laerm;57664;51.436;5.980;2023-10-08T00:21:42;31.25;29.81;32.32;;
67318;Laerm;57664;51.436;5.980;2023-10-08T00:22:01;31.26;29.98;32.34;;
67318;Laerm;57664;51.436;5.980;2023-10-08T00:22:16;31.30;30.03;32.23;;
67318;Laerm;57664;51.436;5.980;2023-10-08T00:22:28;31.27;29.85;32.30;;
67318;Laerm;57664;51.436;5.980;2023-10-08T00:22:41;31.23;30.18;32.14;;
67318;Laerm;57664;51.436;5.980;2023-10-08T00:22:52;31.31;30.09;32.22;;
67318;Laerm;57664;51.436;5.980;2023-10-08T00:23:05;31.26;29.89;32.24;;
67318;Laerm;57664;51.436;5.980;2023-10-08T00:23:21;31.25;30.14;32.34;;
67318;Laerm;57664;51.436;5.980;2023-10-08T00:23:31;31.24;30.03;32.39;;
67318;Laerm;57664;51.436;5.980;2023-10-08T00:23:49;31.28;30.15;32.40;;
67318;Laerm;57664;51.436;5.980;2023-10-08T00:24:02;31.29;30.15;32.38;;
67318;Laerm;57664;51.436;5.980;2023-10-08T00:24:16;31.25;30.13;32.45;;
67318;Laerm;57664;51.436;5.980;2023-10-08T00:24:27;31.63;30.14;33.79;;
67318;Laerm;57664;51.436;5.980;2023-10-08T00:24:38;31.81;30.53;33.73;;
67318;Laerm;57664;51.436;5.980;2023-10-08T00:24:51;31.58;30.38;32.74;;
67318;Laerm;57664;51.436;5.980;2023-10-08T00:25:07;31.54;30.27;32.80;;
67318;Laerm;57664;51.436;5.980;2023-10-08T00:25:21;31.66;30.47;32.94;;
67318;Laerm;57664;51.436;5.980;2023-10-08T00:25:32;32.26;30.77;34.23;;
67318;Laerm;57664;51.436;5.980;2023-10-08T00:25:44;35.69;31.96;38.69;;
67318;Laerm;57664;51.436;5.980;2023-10-08T00:25:57;38.79;36.59;40.76;;
67318;Laerm;57664;51.436;5.980;2023-10-08T00:26:14;37.96;34.41;39.65;;
67318;Laerm;57664;51.436;5.980;2023-10-08T00:26:29;33.79;31.74;36.37;;
67318;Laerm;57664;51.436;5.980;2023-10-08T00:26:41;31.85;30.76;32.93;;
67318;Laerm;57664;51.436;5.980;2023-10-08T00:26:52;31.58;30.21;32.59;;
67318;Laerm;57664;51.436;5.980;2023-10-08T00:27:04;31.40;30.38;32.33;;
67318;Laerm;57664;51.436;5.980;2023-10-08T00:27:20;31.39;30.23;32.59;;
67318;Laerm;57664;51.436;5.980;2023-10-08T00:27:32;31.29;30.45;32.35;;
67318;Laerm;57664;51.436;5.980;2023-10-08T00:27:49;31.25;30.10;32.36;;
67318;Laerm;57664;51.436;5.980;2023-10-08T00:28:01;31.25;30.15;32.12;;
67318;Laerm;57664;51.436;5.980;2023-10-08T00:28:12;31.24;29.92;32.24;;
67318;Laerm;57664;51.436;5.980;2023-10-08T00:28:23;31.24;30.16;32.20;;
67318;Laerm;57664;51.436;5.980;2023-10-08T00:28:38;31.25;30.14;32.31;;
67318;Laerm;57664;51.436;5.980;2023-10-08T00:28:50;31.20;30.15;32.24;;
67318;Laerm;57664;51.436;5.980;2023-10-08T00:29:05;31.23;30.34;32.20;;
67318;Laerm;57664;51.436;5.980;2023-10-08T00:29:35;31.27;30.24;32.42;;
67318;Laerm;57664;51.436;5.980;2023-10-08T00:29:49;31.25;30.19;32.44;;
67318;Laerm;57664;51.436;5.980;2023-10-08T00:29:59;31.27;30.04;32.44;;
67318;Laerm;57664;51.436;5.980;2023-10-08T00:30:11;31.23;30.05;32.00;;
67318;Laerm;57664;51.436;5.980;2023-10-08T00:30:27;31.24;30.06;32.38;;
67318;Laerm;57664;51.436;5.980;2023-10-08T00:30:41;31.24;29.95;32.39;;
67318;Laerm;57664;51.436;5.980;2023-10-08T00:30:54;31.25;30.15;32.67;;
67318;Laerm;57664;51.436;5.980;2023-10-08T00:31:05;31.27;30.18;32.64;;
67318;Laerm;57664;51.436;5.980;2023-10-08T00:31:26;31.28;30.32;33.51;;
67318;Laerm;57664;51.436;5.980;2023-10-08T00:31:48;31.24;30.14;32.33;;
67318;Laerm;57664;51.436;5.980;2023-10-08T00:31:59;31.28;30.02;32.25;;
67318;Laerm;57664;51.436;5.980;2023-10-08T00:32:15;31.25;30.18;32.30;;
67318;Laerm;57664;51.436;5.980;2023-10-08T00:32:27;31.24;30.38;32.28;;
67318;Laerm;57664;51.436;5.980;2023-10-08T00:32:37;31.23;30.15;32.24;;
67318;Laerm;57664;51.436;5.980;2023-10-08T00:32:47;31.23;30.24;32.12;;
67318;Laerm;57664;51.436;5.980;2023-10-08T00:32:58;31.23;30.08;32.36;;
67318;Laerm;57664;51.436;5.980;2023-10-08T00:33:08;31.23;30.20;32.39;;
67318;Laerm;57664;51.436;5.980;2023-10-08T00:33:19;31.21;29.78;32.53;;
67318;Laerm;57664;51.436;5.980;2023-10-08T00:33:29;31.23;29.83;32.23;;
67318;Laerm;57664;51.436;5.980;2023-10-08T00:33:43;31.24;30.17;32.29;;
67318;Laerm;57664;51.436;5.980;2023-10-08T00:33:54;31.23;30.31;32.21;;
67318;Laerm;57664;51.436;5.980;2023-10-08T00:34:06;31.21;30.26;32.19;;
67318;Laerm;57664;51.436;5.980;2023-10-08T00:34:21;31.27;30.02;32.30;;
67318;Laerm;57664;51.436;5.980;2023-10-08T00:34:31;31.23;30.28;32.21;;
67318;Laerm;57664;51.436;5.980;2023-10-08T00:34:42;31.24;30.16;32.17;;
67318;Laerm;57664;51.436;5.980;2023-10-08T00:34:53;31.26;30.18;32.57;;
67318;Laerm;57664;51.436;5.980;2023-10-08T00:35:05;31.28;30.31;32.69;;
67318;Laerm;57664;51.436;5.980;2023-10-08T00:35:15;31.27;30.16;32.18;;
67318;Laerm;57664;51.436;5.980;2023-10-08T00:35:30;31.26;30.20;32.42;;
67318;Laerm;57664;51.436;5.980;2023-10-08T00:35:41;31.24;29.96;32.31;;
67318;Laerm;57664;51.436;5.980;2023-10-08T00:35:52;31.25;30.34;32.39;;
67318;Laerm;57664;51.436;5.980;2023-10-08T00:36:02;31.24;30.24;32.36;;
67318;Laerm;57664;51.436;5.980;2023-10-08T00:36:29;31.24;30.02;32.31;;
67318;Laerm;57664;51.436;5.980;2023-10-08T00:36:40;31.25;29.95;32.44;;
67318;Laerm;57664;51.436;5.980;2023-10-08T00:36:51;31.32;29.99;37.74;;
67318;Laerm;57664;51.436;5.980;2023-10-08T00:37:02;31.27;30.28;32.29;;
67318;Laerm;57664;51.436;5.980;2023-10-08T00:37:12;31.25;30.20;32.30;;
67318;Laerm;57664;51.436;5.980;2023-10-08T00:37:26;31.24;30.10;32.56;;
67318;Laerm;57664;51.436;5.980;2023-10-08T00:37:39;31.28;30.30;32.23;;
67318;Laerm;57664;51.436;5.980;2023-10-08T00:37:50;31.25;30.17;32.32;;
67318;Laerm;57664;51.436;5.980;2023-10-08T00:38:01;31.25;29.89;32.55;;
67318;Laerm;57664;51.436;5.980;2023-10-08T00:38:14;31.24;30.19;32.29;;
67318;Laerm;57664;51.436;5.980;2023-10-08T00:38:26;31.22;30.33;32.15;;
67318;Laerm;57664;51.436;5.980;2023-10-08T00:38:46;31.29;29.97;32.72;;
67318;Laerm;57664;51.436;5.980;2023-10-08T00:39:00;31.28;29.98;33.34;;
67318;Laerm;57664;51.436;5.980;2023-10-08T00:39:10;31.27;30.27;32.42;;
67318;Laerm;57664;51.436;5.980;2023-10-08T00:39:24;31.28;30.26;32.52;;
67318;Laerm;57664;51.436;5.980;2023-10-08T00:39:34;31.27;30.40;32.42;;
67318;Laerm;57664;51.436;5.980;2023-10-08T00:39:47;31.23;29.81;32.51;;
67318;Laerm;57664;51.436;5.980;2023-10-08T00:39:59;31.26;30.23;32.35;;
67318;Laerm;57664;51.436;5.980;2023-10-08T00:40:10;31.24;30.23;32.13;;
67318;Laerm;57664;51.436;5.980;2023-10-08T00:40:24;31.22;30.05;32.28;;
67318;Laerm;57664;51.436;5.980;2023-10-08T00:40:38;31.27;30.05;32.27;;
67318;Laerm;57664;51.436;5.980;2023-10-08T00:40:49;31.24;30.13;32.38;;
67318;Laerm;57664;51.436;5.980;2023-10-08T00:41:00;31.27;30.27;32.33;;
67318;Laerm;57664;51.436;5.980;2023-10-08T00:41:13;31.21;30.19;32.26;;
67318;Laerm;57664;51.436;5.980;2023-10-08T00:41:25;31.23;29.92;32.37;;
67318;Laerm;57664;51.436;5.980;2023-10-08T00:41:39;31.29;30.00;32.21;;
67318;Laerm;57664;51.436;5.980;2023-10-08T00:41:49;31.33;30.38;32.27;;
67318;Laerm;57664;51.436;5.980;2023-10-08T00:42:00;31.24;30.06;32.23;;
67318;Laerm;57664;51.436;5.980;2023-10-08T00:42:15;31.24;30.07;32.45;;
67318;Laerm;57664;51.436;5.980;2023-10-08T00:42:27;31.24;30.08;32.29;;
67318;Laerm;57664;51.436;5.980;2023-10-08T00:42:38;31.27;30.07;32.29;;
67318;Laerm;57664;51.436;5.980;2023-10-08T00:43:04;31.25;30.17;32.27;;
67318;Laerm;57664;51.436;5.980;2023-10-08T00:43:35;31.25;30.18;32.39;;
67318;Laerm;57664;51.436;5.980;2023-10-08T00:43:46;31.26;30.17;32.34;;
67318;Laerm;57664;51.436;5.980;2023-10-08T00:43:56;31.23;30.18;32.07;;
67318;Laerm;57664;51.436;5.980;2023-10-08T00:44:09;31.27;30.33;33.21;;
67318;Laerm;57664;51.436;5.980;2023-10-08T00:44:32;31.28;30.03;32.29;;
67318;Laerm;57664;51.436;5.980;2023-10-08T00:44:48;31.27;30.29;32.21;;
67318;Laerm;57664;51.436;5.980;2023-10-08T00:45:01;31.25;30.26;32.41;;
67318;Laerm;57664;51.436;5.980;2023-10-08T00:45:15;31.26;30.33;32.55;;
67318;Laerm;57664;51.436;5.980;2023-10-08T00:45:29;31.25;30.36;32.31;;
67318;Laerm;57664;51.436;5.980;2023-10-08T00:45:40;31.26;30.21;32.34;;
67318;Laerm;57664;51.436;5.980;2023-10-08T00:45:53;31.28;30.15;32.25;;
67318;Laerm;57664;51.436;5.980;2023-10-08T00:46:05;31.27;30.39;32.17;;
67318;Laerm;57664;51.436;5.980;2023-10-08T00:46:20;31.30;30.14;32.31;;
67318;Laerm;57664;51.436;5.980;2023-10-08T00:46:34;31.26;29.84;32.39;;
67318;Laerm;57664;51.436;5.980;2023-10-08T00:46:52;31.28;30.15;32.48;;
67318;Laerm;57664;51.436;5.980;2023-10-08T00:47:07;31.24;30.21;32.26;;
67318;Laerm;57664;51.436;5.980;2023-10-08T00:47:21;31.28;30.06;32.33;;
67318;Laerm;57664;51.436;5.980;2023-10-08T00:47:36;31.29;30.10;32.29;;
67318;Laerm;57664;51.436;5.980;2023-10-08T00:47:53;31.27;30.06;32.23;;
67318;Laerm;57664;51.436;5.980;2023-10-08T00:48:06;31.26;30.15;32.24;;
67318;Laerm;57664;51.436;5.980;2023-10-08T00:48:16;31.25;30.12;32.06;;
67318;Laerm;57664;51.436;5.980;2023-10-08T00:48:28;31.28;30.27;32.35;;
67318;Laerm;57664;51.436;5.980;2023-10-08T00:48:45;31.27;30.12;32.86;;
67318;Laerm;57664;51.436;5.980;2023-10-08T00:48:56;31.25;30.08;32.20;;
67318;Laerm;57664;51.436;5.980;2023-10-08T00:49:07;31.24;30.40;32.01;;
67318;Laerm;57664;51.436;5.980;2023-10-08T00:49:34;31.26;30.05;32.39;;
67318;Laerm;57664;51.436;5.980;2023-10-08T00:50:00;31.29;30.22;32.26;;
67318;Laerm;57664;51.436;5.980;2023-10-08T00:50:45;31.89;30.05;35.00;;
67318;Laerm;57664;51.436;5.980;2023-10-08T00:51:00;37.60;33.39;40.74;;
67318;Laerm;57664;51.436;5.980;2023-10-08T00:51:46;36.07;30.46;41.08;;
67318;Laerm;57664;51.436;5.980;2023-10-08T00:52:15;31.32;30.22;32.72;;
67318;Laerm;57664;51.436;5.980;2023-10-08T00:52:26;31.30;30.41;32.39;;
67318;Laerm;57664;51.436;5.980;2023-10-08T00:52:39;31.32;30.26;32.58;;
67318;Laerm;57664;51.436;5.980;2023-10-08T00:52:50;31.25;29.90;32.35;;
67318;Laerm;57664;51.436;5.980;2023-10-08T00:53:10;31.24;30.16;32.60;;
67318;Laerm;57664;51.436;5.980;2023-10-08T00:53:36;31.26;30.06;32.25;;
67318;Laerm;57664;51.436;5.980;2023-10-08T00:54:09;31.28;30.22;32.17;;
67318;Laerm;57664;51.436;5.980;2023-10-08T00:54:20;31.21;29.67;32.12;;
67318;Laerm;57664;51.436;5.980;2023-10-08T00:54:31;31.23;30.24;32.28;;
67318;Laerm;57664;51.436;5.980;2023-10-08T00:54:50;31.25;30.14;32.38;;
67318;Laerm;57664;51.436;5.980;2023-10-08T00:55:09;31.30;30.42;35.75;;
67318;Laerm;57664;51.436;5.980;2023-10-08T00:55:20;31.29;30.23;32.22;;
67318;Laerm;57664;51.436;5.980;2023-10-08T00:55:31;31.28;30.38;32.25;;
67318;Laerm;57664;51.436;5.980;2023-10-08T00:55:45;31.33;30.01;32.45;;
67318;Laerm;57664;51.436;5.980;2023-10-08T00:56:07;31.28;30.17;32.31;;
67318;Laerm;57664;51.436;5.980;2023-10-08T00:56:29;31.27;30.00;32.39;;
67318;Laerm;57664;51.436;5.980;2023-10-08T00:57:00;31.26;29.88;32.39;;
67318;Laerm;57664;51.436;5.980;2023-10-08T00:57:27;31.24;30.08;32.27;;
67318;Laerm;57664;51.436;5.980;2023-10-08T00:57:38;31.24;30.08;32.37;;
67318;Laerm;57664;51.436;5.980;2023-10-08T00:57:58;31.25;29.92;32.42;;
67318;Laerm;57664;51.436;5.980;2023-10-08T00:58:08;31.22;30.20;32.39;;
67318;Laerm;57664;51.436;5.980;2023-10-08T00:58:22;31.28;30.35;32.43;;
67318;Laerm;57664;51.436;5.980;2023-10-08T00:58:35;31.25;29.86;32.17;;
67318;Laerm;57664;51.436;5.980;2023-10-08T00:58:46;31.24;30.15;32.13;;
67318;Laerm;57664;51.436;5.980;2023-10-08T00:58:58;31.23;30.10;32.22;;
67318;Laerm;57664;51.436;5.980;2023-10-08T00:59:10;31.24;30.36;32.24;;
67318;Laerm;57664;51.436;5.980;2023-10-08T00:59:25;31.27;30.22;32.36;;
67318;Laerm;57664;51.436;5.980;2023-10-08T00:59:36;31.26;30.05;32.41;;
67318;Laerm;57664;51.436;5.980;2023-10-08T00:59:55;31.27;30.05;32.42;;
67318;Laerm;57664;51.436;5.980;2023-10-08T01:00:09;31.31;30.03;32.55;;
67318;Laerm;57664;51.436;5.980;2023-10-08T01:00:30;31.26;30.09;32.39;;
67318;Laerm;57664;51.436;5.980;2023-10-08T01:00:45;31.25;30.16;32.51;;
67318;Laerm;57664;51.436;5.980;2023-10-08T01:00:57;31.27;29.91;32.39;;
67318;Laerm;57664;51.436;5.980;2023-10-08T01:01:14;31.29;30.04;32.26;;
67318;Laerm;57664;51.436;5.980;2023-10-08T01:01:26;31.26;30.13;32.30;;
67318;Laerm;57664;51.436;5.980;2023-10-08T01:01:38;31.26;30.20;32.18;;
67318;Laerm;57664;51.436;5.980;2023-10-08T01:01:49;31.28;30.30;32.21;;
67318;Laerm;57664;51.436;5.980;2023-10-08T01:02:11;31.28;30.20;32.47;;
67318;Laerm;57664;51.436;5.980;2023-10-08T01:02:26;31.29;29.94;32.47;;
67318;Laerm;57664;51.436;5.980;2023-10-08T01:02:38;31.27;30.22;33.07;;
67318;Laerm;57664;51.436;5.980;2023-10-08T01:03:19;31.30;30.07;32.59;;
67318;Laerm;57664;51.436;5.980;2023-10-08T01:03:29;31.33;30.20;33.19;;
67318;Laerm;57664;51.436;5.980;2023-10-08T01:03:40;31.28;30.36;32.71;;
67318;Laerm;57664;51.436;5.980;2023-10-08T01:03:54;31.29;30.28;32.37;;
67318;Laerm;57664;51.436;5.980;2023-10-08T01:04:05;31.28;30.26;32.28;;
67318;Laerm;57664;51.436;5.980;2023-10-08T01:04:22;31.30;30.21;32.35;;
67318;Laerm;57664;51.436;5.980;2023-10-08T01:04:36;31.30;30.42;32.23;;
67318;Laerm;57664;51.436;5.980;2023-10-08T01:04:48;31.34;30.06;33.76;;
67318;Laerm;57664;51.436;5.980;2023-10-08T01:05:00;31.45;30.38;33.64;;
67318;Laerm;57664;51.436;5.980;2023-10-08T01:05:11;31.33;30.07;32.83;;
67318;Laerm;57664;51.436;5.980;2023-10-08T01:05:22;31.33;30.31;32.55;;
67318;Laerm;57664;51.436;5.980;2023-10-08T01:05:51;31.28;29.98;32.50;;
67318;Laerm;57664;51.436;5.980;2023-10-08T01:06:01;31.32;30.21;32.23;;
67318;Laerm;57664;51.436;5.980;2023-10-08T01:06:13;31.29;30.31;32.47;;
67318;Laerm;57664;51.436;5.980;2023-10-08T01:06:28;31.31;29.99;32.40;;
67318;Laerm;57664;51.436;5.980;2023-10-08T01:07:23;31.31;30.24;32.35;;
67318;Laerm;57664;51.436;5.980;2023-10-08T01:07:35;31.32;30.25;32.26;;
67318;Laerm;57664;51.436;5.980;2023-10-08T01:07:50;31.34;30.33;32.32;;
67318;Laerm;57664;51.436;5.980;2023-10-08T01:08:09;31.34;30.32;32.48;;
67318;Laerm;57664;51.436;5.980;2023-10-08T01:08:22;31.30;29.86;33.23;;
67318;Laerm;57664;51.436;5.980;2023-10-08T01:08:47;31.31;30.17;32.41;;
67318;Laerm;57664;51.436;5.980;2023-10-08T01:09:02;31.32;30.12;32.31;;
67318;Laerm;57664;51.436;5.980;2023-10-08T01:09:27;31.32;30.14;32.34;;
67318;Laerm;57664;51.436;5.980;2023-10-08T01:09:45;31.30;30.42;32.50;;
67318;Laerm;57664;51.436;5.980;2023-10-08T01:10:23;31.34;30.25;32.52;;
67318;Laerm;57664;51.436;5.980;2023-10-08T01:10:36;31.36;30.22;32.39;;
67318;Laerm;57664;51.436;5.980;2023-10-08T01:10:47;31.38;30.37;32.42;;
67318;Laerm;57664;51.436;5.980;2023-10-08T01:10:57;31.33;30.12;32.36;;
67318;Laerm;57664;51.436;5.980;2023-10-08T01:11:17;31.33;30.24;32.17;;
67318;Laerm;57664;51.436;5.980;2023-10-08T01:11:27;31.32;30.11;32.26;;
67318;Laerm;57664;51.436;5.980;2023-10-08T01:12:22;31.37;30.24;32.42;;
67318;Laerm;57664;51.436;5.980;2023-10-08T01:12:44;31.34;30.23;32.55;;
67318;Laerm;57664;51.436;5.980;2023-10-08T01:13:04;31.35;30.16;32.35;;
67318;Laerm;57664;51.436;5.980;2023-10-08T01:13:15;31.33;30.19;32.26;;
67318;Laerm;57664;51.436;5.980;2023-10-08T01:13:30;31.36;30.28;32.34;;
67318;Laerm;57664;51.436;5.980;2023-10-08T01:13:52;31.38;30.20;32.43;;
67318;Laerm;57664;51.436;5.980;2023-10-08T01:14:05;31.36;29.92;32.45;;
67318;Laerm;57664;51.436;5.980;2023-10-08T01:14:17;31.35;30.08;32.61;;
67318;Laerm;57664;51.436;5.980;2023-10-08T01:14:35;31.36;30.27;32.48;;
67318;Laerm;57664;51.436;5.980;2023-10-08T01:14:47;31.37;30.60;32.30;;
67318;Laerm;57664;51.436;5.980;2023-10-08T01:14:59;31.34;30.38;32.38;;
67318;Laerm;57664;51.436;5.980;2023-10-08T01:15:28;31.38;30.03;32.32;;
67318;Laerm;57664;51.436;5.980;2023-10-08T01:15:39;31.35;30.37;32.24;;
67318;Laerm;57664;51.436;5.980;2023-10-08T01:15:51;31.38;29.83;32.38;;
67318;Laerm;57664;51.436;5.980;2023-10-08T01:16:02;31.34;30.23;32.45;;
67318;Laerm;57664;51.436;5.980;2023-10-08T01:16:13;31.38;30.14;32.35;;
67318;Laerm;57664;51.436;5.980;2023-10-08T01:16:28;31.34;30.26;32.39;;
67318;Laerm;57664;51.436;5.980;2023-10-08T01:16:42;31.39;30.34;32.55;;
67318;Laerm;57664;51.436;5.980;2023-10-08T01:16:57;31.36;30.37;32.66;;
67318;Laerm;57664;51.436;5.980;2023-10-08T01:17:11;31.45;30.44;32.46;;
67318;Laerm;57664;51.436;5.980;2023-10-08T01:17:28;31.37;30.37;32.35;;
67318;Laerm;57664;51.436;5.980;2023-10-08T01:17:42;31.38;30.36;32.36;;
67318;Laerm;57664;51.436;5.980;2023-10-08T01:18:07;31.41;30.15;32.53;;
67318;Laerm;57664;51.436;5.980;2023-10-08T01:18:24;31.40;30.42;32.34;;
67318;Laerm;57664;51.436;5.980;2023-10-08T01:18:42;31.40;30.33;32.42;;
67318;Laerm;57664;51.436;5.980;2023-10-08T01:19:01;31.39;30.33;32.51;;
67318;Laerm;57664;51.436;5.980;2023-10-08T01:19:17;31.38;30.00;32.41;;
67318;Laerm;57664;51.436;5.980;2023-10-08T01:19:28;31.40;30.33;32.38;;
67318;Laerm;57664;51.436;5.980;2023-10-08T01:19:38;31.39;30.24;32.31;;
67318;Laerm;57664;51.436;5.980;2023-10-08T01:19:50;31.39;30.07;32.49;;
67318;Laerm;57664;51.436;5.980;2023-10-08T01:20:05;31.40;30.27;32.46;;
67318;Laerm;57664;51.436;5.980;2023-10-08T01:20:31;31.42;30.10;32.67;;
67318;Laerm;57664;51.436;5.980;2023-10-08T01:20:45;31.49;30.34;32.95;;
67318;Laerm;57664;51.436;5.980;2023-10-08T01:20:59;31.40;30.27;32.48;;
67318;Laerm;57664;51.436;5.980;2023-10-08T01:21:18;31.42;30.09;32.50;;
67318;Laerm;57664;51.436;5.980;2023-10-08T01:21:43;31.41;30.11;32.43;;
67318;Laerm;57664;51.436;5.980;2023-10-08T01:21:54;31.45;30.45;32.49;;
67318;Laerm;57664;51.436;5.980;2023-10-08T01:22:08;31.44;30.47;32.37;;
67318;Laerm;57664;51.436;5.980;2023-10-08T01:22:30;31.41;30.32;32.78;;
67318;Laerm;57664;51.436;5.980;2023-10-08T01:22:40;31.44;30.22;32.55;;
67318;Laerm;57664;51.436;5.980;2023-10-08T01:22:51;31.44;30.39;32.58;;
67318;Laerm;57664;51.436;5.980;2023-10-08T01:23:05;31.42;30.30;32.38;;
67318;Laerm;57664;51.436;5.980;2023-10-08T01:23:23;31.45;30.08;32.45;;
67318;Laerm;57664;51.436;5.980;2023-10-08T01:23:37;31.42;30.35;32.44;;